sensor_id;sensor_type;location;lat;lon;timestamp;P1;durP1;ratioP1;P2;durP2;ratioP2
45867;SDS011;31582;45.490;7.860;2023-02-28T16:00:14;14.00;;;11.23;;
45867;SDS011;31582;45.490;7.860;2023-02-28T16:02:45;16.35;;;12.50;;
45867;SDS011;31582;45.490;7.860;2023-02-28T16:05:23;16.27;;;12.30;;
45867;SDS011;31582;45.490;7.860;2023-02-28T16:08:17;14.48;;;11.80;;
45867;SDS011;31582;45.490;7.860;2023-02-28T16:10:45;15.88;;;11.93;;
45867;SDS011;31582;45.490;7.860;2023-02-28T16:13:13;15.82;;;11.38;;
45867;SDS011;31582;45.490;7.860;2023-02-28T16:15:42;15.88;;;11.45;;
45867;SDS011;31582;45.490;7.860;2023-02-28T16:18:11;15.88;;;11.90;;
45867;SDS011;31582;45.490;7.860;2023-02-28T16:20:39;15.45;;;11.82;;
45867;SDS011;31582;45.490;7.860;2023-02-28T16:23:06;15.52;;;11.48;;
45867;SDS011;31582;45.490;7.860;2023-02-28T16:25:35;15.45;;;11.55;;
45867;SDS011;31582;45.490;7.860;2023-02-28T16:28:06;14.18;;;12.00;;
45867;SDS011;31582;45.490;7.860;2023-02-28T16:30:38;15.45;;;11.80;;
45867;SDS011;31582;45.490;7.860;2023-02-28T16:33:07;17.15;;;11.88;;
45867;SDS011;31582;45.490;7.860;2023-02-28T16:35:34;14.70;;;11.80;;
45867;SDS011;31582;45.490;7.860;2023-02-28T16:38:01;15.50;;;12.13;;
45867;SDS011;31582;45.490;7.860;2023-02-28T16:40:28;19.33;;;12.15;;
45867;SDS011;31582;45.490;7.860;2023-02-28T16:43:07;15.32;;;11.18;;
45867;SDS011;31582;45.490;7.860;2023-02-28T16:45:39;15.27;;;11.75;;
45867;SDS011;31582;45.490;7.860;2023-02-28T16:48:07;16.45;;;12.57;;
45867;SDS011;31582;45.490;7.860;2023-02-28T16:50:39;16.20;;;12.60;;
45867;SDS011;31582;45.490;7.860;2023-02-28T16:53:06;17.58;;;12.93;;
45867;SDS011;31582;45.490;7.860;2023-02-28T16:55:34;25.45;;;18.90;;
45867;SDS011;31582;45.490;7.860;2023-02-28T16:58:02;23.70;;;17.42;;
45867;SDS011;31582;45.490;7.860;2023-02-28T17:00:30;27.85;;;19.30;;
45867;SDS011;31582;45.490;7.860;2023-02-28T17:02:58;27.27;;;19.30;;
45867;SDS011;31582;45.490;7.860;2023-02-28T17:05:33;26.48;;;18.75;;
45867;SDS011;31582;45.490;7.860;2023-02-28T17:08:04;25.45;;;17.65;;
45867;SDS011;31582;45.490;7.860;2023-02-28T17:10:31;26.63;;;19.53;;
45867;SDS011;31582;45.490;7.860;2023-02-28T17:12:58;28.05;;;19.42;;
45867;SDS011;31582;45.490;7.860;2023-02-28T17:15:39;27.27;;;18.38;;
45867;SDS011;31582;45.490;7.860;2023-02-28T17:18:08;26.93;;;18.47;;
45867;SDS011;31582;45.490;7.860;2023-02-28T17:20:41;22.98;;;17.17;;
45867;SDS011;31582;45.490;7.860;2023-02-28T17:23:08;23.13;;;16.05;;
45867;SDS011;31582;45.490;7.860;2023-02-28T17:25:35;24.83;;;16.30;;
45867;SDS011;31582;45.490;7.860;2023-02-28T17:28:02;21.80;;;15.88;;
45867;SDS011;31582;45.490;7.860;2023-02-28T17:30:31;26.80;;;16.50;;
45867;SDS011;31582;45.490;7.860;2023-02-28T17:33:01;31.17;;;18.67;;
45867;SDS011;31582;45.490;7.860;2023-02-28T17:35:28;20.73;;;15.88;;
45867;SDS011;31582;45.490;7.860;2023-02-28T17:37:55;24.95;;;17.58;;
45867;SDS011;31582;45.490;7.860;2023-02-28T17:40:22;26.35;;;18.90;;
45867;SDS011;31582;45.490;7.860;2023-02-28T17:42:50;26.63;;;17.83;;
45867;SDS011;31582;45.490;7.860;2023-02-28T17:45:18;23.95;;;17.50;;
45867;SDS011;31582;45.490;7.860;2023-02-28T17:47:47;22.73;;;16.55;;
45867;SDS011;31582;45.490;7.860;2023-02-28T17:50:16;22.88;;;17.10;;
45867;SDS011;31582;45.490;7.860;2023-02-28T17:52:46;22.43;;;15.93;;
45867;SDS011;31582;45.490;7.860;2023-02-28T17:55:13;23.92;;;15.70;;
45867;SDS011;31582;45.490;7.860;2023-02-28T17:57:40;19.33;;;15.48;;
45867;SDS011;31582;45.490;7.860;2023-02-28T18:00:10;22.40;;;15.35;;
45867;SDS011;31582;45.490;7.860;2023-02-28T18:02:39;32.97;;;16.75;;
45867;SDS011;31582;45.490;7.860;2023-02-28T18:05:07;20.30;;;15.45;;
45867;SDS011;31582;45.490;7.860;2023-02-28T18:07:35;22.15;;;15.88;;
45867;SDS011;31582;45.490;7.860;2023-02-28T18:10:04;25.13;;;16.17;;
45867;SDS011;31582;45.490;7.860;2023-02-28T18:12:33;26.95;;;18.00;;
45867;SDS011;31582;45.490;7.860;2023-02-28T18:15:00;26.85;;;18.70;;
45867;SDS011;31582;45.490;7.860;2023-02-28T18:17:27;30.58;;;19.33;;
45867;SDS011;31582;45.490;7.860;2023-02-28T18:19:56;26.88;;;18.27;;
45867;SDS011;31582;45.490;7.860;2023-02-28T18:22:25;24.98;;;17.95;;
45867;SDS011;31582;45.490;7.860;2023-02-28T18:24:54;25.10;;;16.55;;
45867;SDS011;31582;45.490;7.860;2023-02-28T18:27:21;25.63;;;17.50;;
45867;SDS011;31582;45.490;7.860;2023-02-28T18:29:48;29.40;;;19.67;;
45867;SDS011;31582;45.490;7.860;2023-02-28T18:32:17;28.52;;;21.10;;
45867;SDS011;31582;45.490;7.860;2023-02-28T18:34:44;37.50;;;26.52;;
45867;SDS011;31582;45.490;7.860;2023-02-28T18:37:13;50.05;;;36.13;;
45867;SDS011;31582;45.490;7.860;2023-02-28T18:39:41;64.47;;;39.88;;
45867;SDS011;31582;45.490;7.860;2023-02-28T18:42:08;65.32;;;40.13;;
45867;SDS011;31582;45.490;7.860;2023-02-28T18:44:36;59.25;;;38.55;;
45867;SDS011;31582;45.490;7.860;2023-02-28T18:47:03;49.77;;;33.27;;
45867;SDS011;31582;45.490;7.860;2023-02-28T18:49:30;49.72;;;32.33;;
45867;SDS011;31582;45.490;7.860;2023-02-28T18:52:01;37.58;;;25.92;;
45867;SDS011;31582;45.490;7.860;2023-02-28T18:54:28;33.73;;;24.03;;
45867;SDS011;31582;45.490;7.860;2023-02-28T18:56:55;36.42;;;27.45;;
45867;SDS011;31582;45.490;7.860;2023-02-28T18:59:22;40.75;;;29.13;;
45867;SDS011;31582;45.490;7.860;2023-02-28T19:01:49;42.42;;;28.98;;
45867;SDS011;31582;45.490;7.860;2023-02-28T19:04:16;36.88;;;26.92;;
45867;SDS011;31582;45.490;7.860;2023-02-28T19:06:43;30.80;;;22.95;;
45867;SDS011;31582;45.490;7.860;2023-02-28T19:09:10;30.25;;;20.95;;
45867;SDS011;31582;45.490;7.860;2023-02-28T19:11:37;33.35;;;23.40;;
45867;SDS011;31582;45.490;7.860;2023-02-28T19:14:08;37.95;;;26.17;;
45867;SDS011;31582;45.490;7.860;2023-02-28T19:16:36;35.53;;;25.33;;
45867;SDS011;31582;45.490;7.860;2023-02-28T19:19:04;34.22;;;23.90;;
45867;SDS011;31582;45.490;7.860;2023-02-28T19:21:31;35.70;;;23.85;;
45867;SDS011;31582;45.490;7.860;2023-02-28T19:24:03;34.97;;;23.02;;
45867;SDS011;31582;45.490;7.860;2023-02-28T19:26:31;33.50;;;23.33;;
45867;SDS011;31582;45.490;7.860;2023-02-28T19:29:00;32.92;;;24.48;;
45867;SDS011;31582;45.490;7.860;2023-02-28T19:31:29;32.85;;;23.25;;
45867;SDS011;31582;45.490;7.860;2023-02-28T19:33:57;31.58;;;22.42;;
45867;SDS011;31582;45.490;7.860;2023-02-28T19:36:25;35.78;;;23.50;;
45867;SDS011;31582;45.490;7.860;2023-02-28T19:38:56;32.80;;;22.25;;
45867;SDS011;31582;45.490;7.860;2023-02-28T19:41:28;77.35;;;42.30;;
45867;SDS011;31582;45.490;7.860;2023-02-28T19:43:56;34.03;;;23.35;;
45867;SDS011;31582;45.490;7.860;2023-02-28T19:46:25;30.98;;;21.60;;
45867;SDS011;31582;45.490;7.860;2023-02-28T19:48:54;29.92;;;20.92;;
45867;SDS011;31582;45.490;7.860;2023-02-28T19:51:21;30.73;;;21.83;;
45867;SDS011;31582;45.490;7.860;2023-02-28T19:53:52;32.83;;;23.63;;
45867;SDS011;31582;45.490;7.860;2023-02-28T19:56:19;34.25;;;23.55;;
45867;SDS011;31582;45.490;7.860;2023-02-28T19:58:47;36.35;;;24.58;;
45867;SDS011;31582;45.490;7.860;2023-02-28T20:01:15;36.05;;;24.15;;
45867;SDS011;31582;45.490;7.860;2023-02-28T20:03:47;36.27;;;23.50;;
45867;SDS011;31582;45.490;7.860;2023-02-28T20:06:16;34.45;;;23.75;;
45867;SDS011;31582;45.490;7.860;2023-02-28T20:08:43;33.90;;;24.20;;
45867;SDS011;31582;45.490;7.860;2023-02-28T20:11:11;36.58;;;23.80;;
45867;SDS011;31582;45.490;7.860;2023-02-28T20:13:41;29.98;;;21.00;;
45867;SDS011;31582;45.490;7.860;2023-02-28T20:16:10;28.40;;;20.15;;
45867;SDS011;31582;45.490;7.860;2023-02-28T20:18:39;30.80;;;20.87;;
45867;SDS011;31582;45.490;7.860;2023-02-28T20:21:11;29.70;;;20.13;;
45867;SDS011;31582;45.490;7.860;2023-02-28T20:23:39;29.15;;;21.58;;
45867;SDS011;31582;45.490;7.860;2023-02-28T20:26:08;34.28;;;23.05;;
45867;SDS011;31582;45.490;7.860;2023-02-28T20:28:37;53.38;;;34.75;;
45867;SDS011;31582;45.490;7.860;2023-02-28T20:31:11;46.47;;;31.27;;
45867;SDS011;31582;45.490;7.860;2023-02-28T20:33:46;44.13;;;28.05;;
45867;SDS011;31582;45.490;7.860;2023-02-28T20:36:15;38.65;;;27.48;;
45867;SDS011;31582;45.490;7.860;2023-02-28T20:38:45;36.97;;;26.40;;
45867;SDS011;31582;45.490;7.860;2023-02-28T20:41:15;39.40;;;24.80;;
45867;SDS011;31582;45.490;7.860;2023-02-28T20:43:44;31.92;;;23.35;;
45867;SDS011;31582;45.490;7.860;2023-02-28T20:46:11;34.40;;;23.63;;
45867;SDS011;31582;45.490;7.860;2023-02-28T20:48:41;33.65;;;23.30;;
45867;SDS011;31582;45.490;7.860;2023-02-28T20:51:09;33.92;;;23.73;;
45867;SDS011;31582;45.490;7.860;2023-02-28T20:53:36;34.85;;;23.52;;
45867;SDS011;31582;45.490;7.860;2023-02-28T20:56:13;37.28;;;25.23;;
45867;SDS011;31582;45.490;7.860;2023-02-28T20:58:47;33.83;;;23.50;;
45867;SDS011;31582;45.490;7.860;2023-02-28T21:01:17;36.67;;;23.70;;
45867;SDS011;31582;45.490;7.860;2023-02-28T21:06:19;32.60;;;22.52;;
45867;SDS011;31582;45.490;7.860;2023-02-28T21:08:49;34.03;;;23.40;;
45867;SDS011;31582;45.490;7.860;2023-02-28T21:11:21;36.05;;;25.30;;
45867;SDS011;31582;45.490;7.860;2023-02-28T21:13:51;35.53;;;23.75;;
45867;SDS011;31582;45.490;7.860;2023-02-28T21:16:21;34.15;;;22.80;;
45867;SDS011;31582;45.490;7.860;2023-02-28T21:18:50;34.90;;;23.30;;
45867;SDS011;31582;45.490;7.860;2023-02-28T21:21:21;36.38;;;24.52;;
45867;SDS011;31582;45.490;7.860;2023-02-28T21:23:50;34.00;;;23.35;;
45867;SDS011;31582;45.490;7.860;2023-02-28T21:26:19;34.28;;;22.48;;
45867;SDS011;31582;45.490;7.860;2023-02-28T21:28:56;32.17;;;22.63;;
45867;SDS011;31582;45.490;7.860;2023-02-28T21:31:25;32.33;;;22.43;;
45867;SDS011;31582;45.490;7.860;2023-02-28T21:33:54;36.33;;;24.75;;
45867;SDS011;31582;45.490;7.860;2023-02-28T21:36:23;37.08;;;24.33;;
45867;SDS011;31582;45.490;7.860;2023-02-28T21:38:56;41.65;;;26.98;;
45867;SDS011;31582;45.490;7.860;2023-02-28T21:41:28;52.22;;;32.33;;
45867;SDS011;31582;45.490;7.860;2023-02-28T21:43:55;58.30;;;33.85;;
45867;SDS011;31582;45.490;7.860;2023-02-28T21:46:24;58.78;;;35.55;;
45867;SDS011;31582;45.490;7.860;2023-02-28T21:48:53;54.50;;;33.95;;
45867;SDS011;31582;45.490;7.860;2023-02-28T21:51:25;47.77;;;31.77;;
45867;SDS011;31582;45.490;7.860;2023-02-28T21:53:57;52.13;;;32.97;;
45867;SDS011;31582;45.490;7.860;2023-02-28T21:56:26;55.88;;;31.83;;
45867;SDS011;31582;45.490;7.860;2023-02-28T21:58:55;42.35;;;27.27;;
45867;SDS011;31582;45.490;7.860;2023-02-28T22:01:30;41.38;;;26.60;;
45867;SDS011;31582;45.490;7.860;2023-02-28T22:04:06;38.47;;;26.15;;
45867;SDS011;31582;45.490;7.860;2023-02-28T22:06:36;43.05;;;27.33;;
45867;SDS011;31582;45.490;7.860;2023-02-28T22:09:06;44.40;;;28.33;;
45867;SDS011;31582;45.490;7.860;2023-02-28T22:11:36;42.92;;;26.85;;
45867;SDS011;31582;45.490;7.860;2023-02-28T22:14:03;40.33;;;24.80;;
45867;SDS011;31582;45.490;7.860;2023-02-28T22:16:32;31.88;;;22.52;;
45867;SDS011;31582;45.490;7.860;2023-02-28T22:19:16;34.08;;;22.23;;
45867;SDS011;31582;45.490;7.860;2023-02-28T22:21:45;34.10;;;21.45;;
45867;SDS011;31582;45.490;7.860;2023-02-28T22:24:13;34.03;;;22.17;;
45867;SDS011;31582;45.490;7.860;2023-02-28T22:26:40;36.60;;;22.80;;
45867;SDS011;31582;45.490;7.860;2023-02-28T22:29:07;35.50;;;23.23;;
45867;SDS011;31582;45.490;7.860;2023-02-28T22:31:35;36.53;;;23.70;;
45867;SDS011;31582;45.490;7.860;2023-02-28T22:34:03;35.55;;;22.70;;
45867;SDS011;31582;45.490;7.860;2023-02-28T22:36:33;31.85;;;21.35;;
45867;SDS011;31582;45.490;7.860;2023-02-28T22:39:03;32.90;;;21.48;;
45867;SDS011;31582;45.490;7.860;2023-02-28T22:41:30;36.40;;;24.10;;
45867;SDS011;31582;45.490;7.860;2023-02-28T22:43:59;34.33;;;22.67;;
45867;SDS011;31582;45.490;7.860;2023-02-28T22:46:28;37.35;;;25.08;;
45867;SDS011;31582;45.490;7.860;2023-02-28T22:48:57;38.53;;;24.70;;
45867;SDS011;31582;45.490;7.860;2023-02-28T22:51:26;37.85;;;25.15;;
45867;SDS011;31582;45.490;7.860;2023-02-28T22:53:54;36.70;;;23.58;;
45867;SDS011;31582;45.490;7.860;2023-02-28T22:56:22;39.00;;;24.70;;
45867;SDS011;31582;45.490;7.860;2023-02-28T22:58:51;43.65;;;26.23;;
45867;SDS011;31582;45.490;7.860;2023-02-28T23:01:20;40.47;;;26.02;;
45867;SDS011;31582;45.490;7.860;2023-02-28T23:03:49;41.95;;;26.63;;
45867;SDS011;31582;45.490;7.860;2023-02-28T23:08:48;46.22;;;29.60;;
45867;SDS011;31582;45.490;7.860;2023-02-28T23:11:17;43.75;;;27.73;;
45867;SDS011;31582;45.490;7.860;2023-02-28T23:13:47;43.80;;;27.55;;
45867;SDS011;31582;45.490;7.860;2023-02-28T23:19:09;47.30;;;28.98;;
45867;SDS011;31582;45.490;7.860;2023-02-28T23:21:39;43.90;;;28.83;;
45867;SDS011;31582;45.490;7.860;2023-02-28T23:24:07;55.67;;;35.42;;
45867;SDS011;31582;45.490;7.860;2023-02-28T23:26:40;65.38;;;39.30;;
45867;SDS011;31582;45.490;7.860;2023-02-28T23:29:10;51.65;;;33.47;;
45867;SDS011;31582;45.490;7.860;2023-02-28T23:31:38;45.03;;;30.08;;
45867;SDS011;31582;45.490;7.860;2023-02-28T23:34:05;40.30;;;26.90;;
45867;SDS011;31582;45.490;7.860;2023-02-28T23:36:32;38.03;;;26.02;;
45867;SDS011;31582;45.490;7.860;2023-02-28T23:38:59;42.80;;;26.65;;
45867;SDS011;31582;45.490;7.860;2023-02-28T23:41:26;45.95;;;29.17;;
45867;SDS011;31582;45.490;7.860;2023-02-28T23:43:53;47.35;;;31.48;;
45867;SDS011;31582;45.490;7.860;2023-02-28T23:46:21;57.33;;;34.90;;
45867;SDS011;31582;45.490;7.860;2023-02-28T23:48:48;54.13;;;33.15;;
45867;SDS011;31582;45.490;7.860;2023-02-28T23:51:16;50.45;;;32.78;;
45867;SDS011;31582;45.490;7.860;2023-02-28T23:53:46;48.42;;;32.40;;
45867;SDS011;31582;45.490;7.860;2023-02-28T23:56:16;43.13;;;27.98;;
45867;SDS011;31582;45.490;7.860;2023-02-28T23:58:45;42.88;;;27.73;;
